createdAt,value
2023-02-13T00:00:02.849Z,280
2023-02-13T00:00:32.447Z,280
2023-02-13T00:01:04.651Z,280
2023-02-13T00:01:36.366Z,280
2023-02-13T00:02:08.480Z,281
2023-02-13T00:02:40.437Z,281
2023-02-13T00:03:12.383Z,280
2023-02-13T00:03:44.442Z,280
2023-02-13T00:04:16.344Z,280
2023-02-13T00:04:48.280Z,280
2023-02-13T00:05:20.494Z,280
2023-02-13T00:05:52.356Z,281
2023-02-13T00:06:24.337Z,280
2023-02-13T00:06:56.243Z,281
2023-02-13T00:07:28.085Z,281
2023-02-13T00:08:00.254Z,280
2023-02-13T00:08:32.271Z,280
2023-02-13T00:09:06.399Z,280
2023-02-13T00:09:36.070Z,280
2023-02-13T00:10:08.295Z,281
2023-02-13T00:10:40.115Z,298
2023-02-13T00:11:12.109Z,298
2023-02-13T00:11:28.089Z,297
2023-02-13T00:12:12.150Z,297
2023-02-13T00:12:44.051Z,286
2023-02-13T00:13:16.058Z,307
2023-02-13T00:13:47.882Z,307
2023-02-13T00:14:19.985Z,307
2023-02-13T00:14:52.063Z,307
2023-02-13T00:15:24.382Z,307
2023-02-13T00:15:55.966Z,307
2023-02-13T00:16:27.870Z,307
2023-02-13T00:16:59.787Z,307
2023-02-13T00:17:31.936Z,290
2023-02-13T00:18:04.197Z,288
2023-02-13T00:18:19.882Z,301
2023-02-13T00:18:51.621Z,304
2023-02-13T00:19:35.801Z,300
2023-02-13T00:20:07.783Z,298
2023-02-13T00:20:39.538Z,297
2023-02-13T00:21:11.804Z,280
2023-02-13T00:21:43.756Z,280
2023-02-13T00:22:15.478Z,280
2023-02-13T00:22:47.570Z,281
2023-02-13T00:23:19.525Z,280
2023-02-13T00:23:51.553Z,299
2023-02-13T00:24:23.336Z,307
2023-02-13T00:24:55.464Z,307
2023-02-13T00:25:12.021Z,307
2023-02-13T00:25:55.581Z,307
2023-02-13T00:26:27.439Z,306
2023-02-13T00:26:59.424Z,306
2023-02-13T00:27:31.273Z,304
2023-02-13T00:28:04.057Z,303
2023-02-13T00:28:35.509Z,303
2023-02-13T00:29:07.213Z,303
2023-02-13T00:29:39.229Z,303
2023-02-13T00:30:12.535Z,304
2023-02-13T00:30:43.377Z,303
2023-02-13T00:31:15.293Z,304
2023-02-13T00:31:47.218Z,303
2023-02-13T00:32:19.199Z,302
2023-02-13T00:32:51.134Z,302
2023-02-13T00:33:23.081Z,303
2023-02-13T00:33:54.974Z,302
2023-02-13T00:34:11.198Z,303
2023-02-13T00:34:42.995Z,304
2023-02-13T00:34:59.120Z,303
2023-02-13T00:35:31.402Z,303
2023-02-13T00:36:03.828Z,304
2023-02-13T00:36:19.106Z,304
2023-02-13T00:36:50.926Z,304
2023-02-13T00:37:34.931Z,303
2023-02-13T00:38:06.843Z,302
2023-02-13T00:38:38.940Z,303
2023-02-13T00:39:11.087Z,304
2023-02-13T00:39:43.015Z,307
2023-02-13T00:40:14.934Z,305
2023-02-13T00:40:46.742Z,306
2023-02-13T00:41:18.687Z,305
2023-02-13T00:41:50.791Z,305
2023-02-13T00:42:22.877Z,305
2023-02-13T00:42:54.681Z,304
2023-02-13T00:43:11.048Z,305
2023-02-13T00:43:54.647Z,354
2023-02-13T00:44:26.746Z,1
2023-02-13T00:44:58.534Z,1
2023-02-13T00:45:30.953Z,355
2023-02-13T00:46:03.656Z,355
2023-02-13T00:46:34.550Z,355
2023-02-13T00:47:06.385Z,355
2023-02-13T00:47:38.511Z,355
2023-02-13T00:48:10.814Z,355
2023-02-13T00:48:42.782Z,355
2023-02-13T00:49:14.383Z,359
2023-02-13T00:49:46.343Z,359
2023-02-13T00:50:18.643Z,359
2023-02-13T00:50:50.376Z,337
2023-02-13T00:51:22.160Z,329
2023-02-13T00:51:54.347Z,328
2023-02-13T00:52:10.441Z,328
2023-02-13T00:52:42.462Z,328
2023-02-13T00:52:58.280Z,328
2023-02-13T00:53:30.175Z,328
2023-02-13T00:54:02.891Z,328
2023-02-13T00:54:34.121Z,307
2023-02-13T00:55:06.545Z,307
2023-02-13T00:55:38.311Z,307
2023-02-13T00:56:10.094Z,307
2023-02-13T00:56:26.254Z,307
2023-02-13T00:56:57.973Z,307
2023-02-13T00:57:42.470Z,297
2023-02-13T00:58:13.994Z,294
2023-02-13T00:58:46.168Z,293
2023-02-13T00:59:18.050Z,289
2023-02-13T00:59:51.056Z,289
2023-02-13T01:00:22.337Z,289
2023-02-13T01:00:53.899Z,286
2023-02-13T01:01:10.072Z,285
2023-02-13T01:01:53.998Z,286
2023-02-13T01:02:25.899Z,286
2023-02-13T01:02:57.788Z,286
2023-02-13T01:03:29.884Z,286
2023-02-13T01:04:02.527Z,291
2023-02-13T01:04:33.823Z,292
2023-02-13T01:05:05.900Z,292
2023-02-13T01:05:37.675Z,281
2023-02-13T01:06:09.762Z,280
2023-02-13T01:06:42.079Z,281
2023-02-13T01:07:15.259Z,280
2023-02-13T01:07:45.677Z,280
2023-02-13T01:08:17.688Z,280
2023-02-13T01:08:49.559Z,280
2023-02-13T01:09:21.585Z,280
2023-02-13T01:09:53.526Z,281
2023-02-13T01:10:10.024Z,280
2023-02-13T01:10:41.727Z,280
2023-02-13T01:10:58.312Z,280
2023-02-13T01:11:29.417Z,281
2023-02-13T01:12:02.155Z,281
2023-02-13T01:12:33.446Z,277
2023-02-13T01:13:05.656Z,277
2023-02-13T01:13:37.255Z,277
2023-02-13T01:14:09.541Z,277
2023-02-13T01:14:25.395Z,277
2023-02-13T01:14:57.157Z,277
2023-02-13T01:15:41.944Z,277
2023-02-13T01:16:13.276Z,277
2023-02-13T01:16:45.434Z,277
2023-02-13T01:17:17.307Z,278
2023-02-13T01:17:49.295Z,278
2023-02-13T01:18:21.223Z,278
2023-02-13T01:18:53.309Z,278
2023-02-13T01:19:25.108Z,278
2023-02-13T01:19:57.320Z,279
2023-02-13T01:20:29.478Z,309
2023-02-13T01:21:01.395Z,323
2023-02-13T01:21:33.429Z,323
2023-02-13T01:22:05.323Z,323
2023-02-13T01:22:36.935Z,323
2023-02-13T01:23:09.173Z,323
2023-02-13T01:23:41.210Z,323
2023-02-13T01:24:13.163Z,319
2023-02-13T01:24:44.965Z,300
2023-02-13T01:25:17.173Z,300
2023-02-13T01:25:49.006Z,300
2023-02-13T01:26:21.118Z,300
2023-02-13T01:26:52.824Z,300
2023-02-13T01:27:24.845Z,299
2023-02-13T01:27:56.833Z,294
2023-02-13T01:28:29.205Z,293
2023-02-13T01:29:01.105Z,293
2023-02-13T01:29:32.769Z,293
2023-02-13T01:30:06.310Z,293
2023-02-13T01:30:36.644Z,293
2023-02-13T01:31:09.011Z,293
2023-02-13T01:31:24.889Z,293
2023-02-13T01:31:56.638Z,288
2023-02-13T01:32:40.820Z,288
2023-02-13T01:33:12.617Z,286
2023-02-13T01:33:44.524Z,285
2023-02-13T01:34:16.606Z,285
2023-02-13T01:34:48.616Z,285
2023-02-13T01:35:20.643Z,285
2023-02-13T01:35:52.774Z,285
2023-02-13T01:36:08.794Z,285
2023-02-13T01:36:52.460Z,285
2023-02-13T01:37:24.454Z,285
2023-02-13T01:37:56.437Z,285
2023-02-13T01:38:28.433Z,285
2023-02-13T01:39:00.513Z,285
2023-02-13T01:39:32.520Z,285
2023-02-13T01:40:04.827Z,285
2023-02-13T01:40:36.214Z,285
2023-02-13T01:41:08.578Z,285
2023-02-13T01:41:40.398Z,285
2023-02-13T01:42:12.308Z,285
2023-02-13T01:42:44.276Z,283
2023-02-13T01:43:16.254Z,286
2023-02-13T01:43:48.322Z,287
2023-02-13T01:44:19.942Z,285
2023-02-13T01:44:52.080Z,286
2023-02-13T01:45:24.490Z,285
2023-02-13T01:45:56.217Z,285
2023-02-13T01:46:28.054Z,285
2023-02-13T01:46:59.979Z,285
2023-02-13T01:47:32.124Z,284
2023-02-13T01:48:05.888Z,284
2023-02-13T01:48:35.848Z,284
2023-02-13T01:49:07.982Z,284
2023-02-13T01:49:40.084Z,284
2023-02-13T01:50:12.412Z,285
2023-02-13T01:50:43.694Z,301
2023-02-13T01:51:15.721Z,300
2023-02-13T01:51:47.918Z,300
2023-02-13T01:52:19.791Z,300
2023-02-13T01:52:51.702Z,300
2023-02-13T01:53:07.878Z,300
2023-02-13T01:53:51.913Z,339
2023-02-13T01:54:23.818Z,343
2023-02-13T01:54:55.810Z,341
2023-02-13T01:55:27.897Z,338
2023-02-13T01:55:59.621Z,324
2023-02-13T01:56:31.800Z,323
2023-02-13T01:57:04.388Z,323
2023-02-13T01:57:35.442Z,310
2023-02-13T01:58:07.625Z,307
2023-02-13T01:58:39.604Z,306
2023-02-13T01:59:11.737Z,304
2023-02-13T01:59:43.496Z,304
2023-02-13T02:00:16.645Z,304
2023-02-13T02:00:47.501Z,304
2023-02-13T02:01:19.574Z,304
2023-02-13T02:01:51.628Z,304
2023-02-13T02:02:23.502Z,304
2023-02-13T02:02:55.413Z,304
2023-02-13T02:03:27.462Z,304
2023-02-13T02:03:59.334Z,304
2023-02-13T02:04:31.428Z,304
2023-02-13T02:05:04.490Z,304
2023-02-13T02:05:35.313Z,304
2023-02-13T02:06:07.274Z,304
2023-02-13T02:06:23.262Z,304
2023-02-13T02:06:55.381Z,304
2023-02-13T02:07:39.215Z,304
2023-02-13T02:08:11.324Z,304
2023-02-13T02:08:43.049Z,304
2023-02-13T02:09:15.118Z,304
2023-02-13T02:09:47.079Z,304
2023-02-13T02:10:19.615Z,304
2023-02-13T02:10:51.126Z,304
2023-02-13T02:11:23.007Z,303
2023-02-13T02:11:55.026Z,303
2023-02-13T02:12:26.939Z,303
2023-02-13T02:12:58.774Z,304
2023-02-13T02:13:30.986Z,304
2023-02-13T02:14:03.883Z,304
2023-02-13T02:14:34.811Z,330
2023-02-13T02:15:07.466Z,328
2023-02-13T02:15:22.883Z,328
2023-02-13T02:16:06.976Z,323
2023-02-13T02:16:38.893Z,323
2023-02-13T02:17:10.986Z,323
2023-02-13T02:17:42.790Z,323
2023-02-13T02:18:14.719Z,323
2023-02-13T02:18:46.816Z,323
2023-02-13T02:19:18.749Z,307
2023-02-13T02:19:50.507Z,297
2023-02-13T02:20:07.076Z,295
2023-02-13T02:20:38.610Z,294
2023-02-13T02:20:55.021Z,294
2023-02-13T02:21:26.737Z,293
2023-02-13T02:21:58.572Z,288
2023-02-13T02:22:30.585Z,288
2023-02-13T02:23:03.378Z,285
2023-02-13T02:23:34.569Z,285
2023-02-13T02:24:06.392Z,286
2023-02-13T02:24:22.488Z,286
2023-02-13T02:24:54.325Z,286
2023-02-13T02:25:38.768Z,286
2023-02-13T02:26:10.579Z,285
2023-02-13T02:26:42.441Z,285
2023-02-13T02:27:14.373Z,284
2023-02-13T02:27:46.430Z,278
2023-02-13T02:28:18.374Z,279
2023-02-13T02:28:50.174Z,279
2023-02-13T02:29:06.404Z,279
2023-02-13T02:29:50.250Z,280
2023-02-13T02:30:23.050Z,278
2023-02-13T02:30:54.159Z,278
2023-02-13T02:31:26.175Z,278
2023-02-13T02:31:58.365Z,278
2023-02-13T02:32:30.285Z,279
2023-02-13T02:33:02.993Z,279
2023-02-13T02:33:34.097Z,280
2023-02-13T02:34:06.156Z,278
2023-02-13T02:34:38.052Z,281
2023-02-13T02:35:10.283Z,280
2023-02-13T02:35:42.074Z,273
2023-02-13T02:36:13.994Z,279
2023-02-13T02:36:45.997Z,288
2023-02-13T02:37:18.066Z,288
2023-02-13T02:37:49.854Z,288
2023-02-13T02:38:06.106Z,288
2023-02-13T02:38:37.815Z,288
2023-02-13T02:38:53.901Z,288
2023-02-13T02:39:25.941Z,288
2023-02-13T02:39:57.748Z,288
2023-02-13T02:40:30.068Z,288
2023-02-13T02:41:02.421Z,288
2023-02-13T02:41:33.956Z,288
2023-02-13T02:42:05.786Z,288
2023-02-13T02:42:21.801Z,288
2023-02-13T02:42:53.920Z,288
2023-02-13T02:43:37.809Z,280
2023-02-13T02:44:09.796Z,279
2023-02-13T02:44:41.514Z,279
2023-02-13T02:45:14.288Z,279
2023-02-13T02:45:45.642Z,279
2023-02-13T02:46:17.625Z,279
2023-02-13T02:46:49.661Z,278
2023-02-13T02:47:05.617Z,278
2023-02-13T02:47:49.516Z,278
2023-02-13T02:48:21.750Z,279
2023-02-13T02:48:53.302Z,279
2023-02-13T02:49:25.353Z,278
2023-02-13T02:49:57.428Z,278
2023-02-13T02:50:29.690Z,278
2023-02-13T02:51:01.881Z,278
2023-02-13T02:51:33.327Z,278
2023-02-13T02:52:05.403Z,278
2023-02-13T02:52:37.261Z,278
2023-02-13T02:53:09.432Z,278
2023-02-13T02:53:41.383Z,278
2023-02-13T02:54:13.274Z,278
2023-02-13T02:54:45.317Z,278
2023-02-13T02:55:17.502Z,277
2023-02-13T02:55:49.212Z,278
2023-02-13T02:56:21.363Z,278
2023-02-13T02:56:53.142Z,278
2023-02-13T02:57:25.095Z,278
2023-02-13T02:57:57.061Z,278
2023-02-13T02:58:13.160Z,278
2023-02-13T02:58:44.872Z,278
2023-02-13T02:59:29.105Z,278
2023-02-13T03:00:03.872Z,278
2023-02-13T03:00:33.092Z,278
2023-02-13T03:01:05.393Z,277
2023-02-13T03:01:37.047Z,275
2023-02-13T03:02:09.044Z,275
2023-02-13T03:02:40.950Z,273
2023-02-13T03:03:12.827Z,271
2023-02-13T03:03:44.947Z,271
2023-02-13T03:04:16.986Z,272
2023-02-13T03:04:48.858Z,271
2023-02-13T03:05:05.651Z,271
2023-02-13T03:05:48.999Z,276
2023-02-13T03:06:20.703Z,279
2023-02-13T03:06:52.680Z,279
2023-02-13T03:07:24.559Z,279
2023-02-13T03:07:56.684Z,279
2023-02-13T03:08:28.730Z,279
2023-02-13T03:09:00.641Z,279
2023-02-13T03:09:32.573Z,278
2023-02-13T03:10:05.281Z,278
2023-02-13T03:10:36.799Z,278
2023-02-13T03:11:08.625Z,275
2023-02-13T03:11:40.507Z,279
2023-02-13T03:12:12.535Z,280
2023-02-13T03:12:44.496Z,280
2023-02-13T03:13:16.358Z,280
2023-02-13T03:13:48.446Z,279
2023-02-13T03:14:05.005Z,279
2023-02-13T03:14:36.295Z,279
2023-02-13T03:14:52.620Z,280
2023-02-13T03:15:24.797Z,280
2023-02-13T03:15:56.293Z,280
2023-02-13T03:16:28.366Z,280
2023-02-13T03:17:00.425Z,280
2023-02-13T03:17:32.316Z,280
2023-02-13T03:18:04.704Z,280
2023-02-13T03:18:20.207Z,280
2023-02-13T03:18:52.185Z,280
2023-02-13T03:19:36.201Z,280
2023-02-13T03:20:08.346Z,280
2023-02-13T03:20:40.024Z,280
2023-02-13T03:21:12.136Z,280
2023-02-13T03:21:45.007Z,280
2023-02-13T03:22:16.731Z,280
2023-02-13T03:22:48.075Z,280
2023-02-13T03:23:04.836Z,280
2023-02-13T03:23:47.895Z,280
2023-02-13T03:24:20.105Z,280
2023-02-13T03:24:51.873Z,280
2023-02-13T03:25:24.178Z,280
2023-02-13T03:25:55.936Z,280
2023-02-13T03:26:27.958Z,280
2023-02-13T03:26:59.771Z,280
2023-02-13T03:27:32.010Z,280
2023-02-13T03:28:04.325Z,280
2023-02-13T03:28:35.907Z,280
2023-02-13T03:29:07.714Z,280
2023-02-13T03:29:41.360Z,280
2023-02-13T03:30:12.715Z,280
2023-02-13T03:30:43.784Z,280
2023-02-13T03:31:15.793Z,280
2023-02-13T03:31:47.585Z,280
2023-02-13T03:32:19.779Z,281
2023-02-13T03:32:51.590Z,280
2023-02-13T03:33:23.392Z,280
2023-02-13T03:33:55.521Z,280
2023-02-13T03:34:27.590Z,280
2023-02-13T03:34:59.508Z,280
2023-02-13T03:35:31.833Z,280
2023-02-13T03:36:04.127Z,280
2023-02-13T03:36:19.516Z,280
2023-02-13T03:36:51.417Z,280
2023-02-13T03:37:35.523Z,280
2023-02-13T03:38:07.301Z,280
2023-02-13T03:38:39.370Z,280
2023-02-13T03:39:11.452Z,280
2023-02-13T03:39:43.322Z,280
2023-02-13T03:40:15.468Z,280
2023-02-13T03:40:47.379Z,279
2023-02-13T03:41:04.131Z,280
2023-02-13T03:41:47.373Z,280
2023-02-13T03:42:19.860Z,280
2023-02-13T03:42:51.097Z,280
2023-02-13T03:43:23.211Z,280
2023-02-13T03:43:55.124Z,280
2023-02-13T03:44:27.157Z,280
2023-02-13T03:44:59.083Z,280
2023-02-13T03:45:31.553Z,280
2023-02-13T03:46:03.724Z,280
2023-02-13T03:46:35.139Z,280
2023-02-13T03:47:06.909Z,280
2023-02-13T03:47:38.907Z,280
2023-02-13T03:48:11.206Z,280
2023-02-13T03:48:43.152Z,280
2023-02-13T03:49:14.771Z,279
2023-02-13T03:49:46.875Z,279
2023-02-13T03:50:04.048Z,279
2023-02-13T03:50:34.849Z,279
2023-02-13T03:50:51.150Z,279
2023-02-13T03:51:22.756Z,280
2023-02-13T03:51:54.720Z,279
2023-02-13T03:52:26.755Z,280
2023-02-13T03:52:58.898Z,280
2023-02-13T03:53:30.750Z,280
2023-02-13T03:54:03.092Z,280
2023-02-13T03:54:18.868Z,279
2023-02-13T03:54:50.548Z,279
2023-02-13T03:55:35.028Z,279
2023-02-13T03:56:06.430Z,279
2023-02-13T03:56:38.576Z,279
2023-02-13T03:57:10.714Z,279
2023-02-13T03:57:42.852Z,279
2023-02-13T03:58:14.449Z,279
2023-02-13T03:58:46.657Z,279
2023-02-13T03:59:03.285Z,279
2023-02-13T03:59:46.465Z,279
2023-02-13T04:00:19.760Z,279
2023-02-13T04:00:50.464Z,279
2023-02-13T04:01:22.315Z,280
2023-02-13T04:01:54.411Z,279
2023-02-13T04:02:26.572Z,280
2023-02-13T04:02:58.287Z,280
2023-02-13T04:03:30.375Z,280
2023-02-13T04:04:03.985Z,280
2023-02-13T04:04:34.329Z,279
2023-02-13T04:05:06.427Z,279
2023-02-13T04:05:38.224Z,280
2023-02-13T04:06:10.321Z,279
2023-02-13T04:06:42.299Z,279
2023-02-13T04:07:14.131Z,279
2023-02-13T04:07:46.132Z,279
2023-02-13T04:08:18.154Z,279
2023-02-13T04:08:50.192Z,279
2023-02-13T04:09:22.121Z,279
2023-02-13T04:09:54.052Z,279
2023-02-13T04:10:26.329Z,279
2023-02-13T04:10:58.421Z,279
2023-02-13T04:11:30.193Z,279
2023-02-13T04:12:02.445Z,279
2023-02-13T04:12:18.089Z,279
2023-02-13T04:12:49.967Z,279
2023-02-13T04:13:34.058Z,280
2023-02-13T04:14:05.761Z,279
2023-02-13T04:14:37.757Z,280
2023-02-13T04:15:11.497Z,280
2023-02-13T04:15:41.962Z,280
2023-02-13T04:16:13.766Z,280
2023-02-13T04:16:45.792Z,280
2023-02-13T04:17:02.918Z,280
2023-02-13T04:17:45.836Z,280
2023-02-13T04:18:17.835Z,280
2023-02-13T04:18:49.725Z,280
2023-02-13T04:19:21.639Z,280
2023-02-13T04:19:53.678Z,279
2023-02-13T04:20:25.921Z,279
2023-02-13T04:20:57.883Z,279
2023-02-13T04:21:29.582Z,280
2023-02-13T04:22:02.261Z,280
2023-02-13T04:22:33.594Z,280
2023-02-13T04:23:05.685Z,280
2023-02-13T04:23:37.468Z,280
2023-02-13T04:24:09.550Z,280
2023-02-13T04:24:41.684Z,280
2023-02-13T04:25:13.746Z,280
2023-02-13T04:25:45.260Z,280
2023-02-13T04:26:02.086Z,280
2023-02-13T04:26:33.338Z,280
2023-02-13T04:26:49.466Z,280
2023-02-13T04:27:21.312Z,280
2023-02-13T04:27:53.222Z,280
2023-02-13T04:28:25.386Z,280
2023-02-13T04:28:57.260Z,280
2023-02-13T04:29:29.269Z,280
2023-02-13T04:30:03.449Z,280
2023-02-13T04:30:33.326Z,280
2023-02-13T04:31:05.531Z,280
2023-02-13T04:31:37.128Z,280
2023-02-13T04:32:09.203Z,280
2023-02-13T04:32:41.372Z,280
2023-02-13T04:33:13.271Z,280
2023-02-13T04:33:45.004Z,280
2023-02-13T04:34:01.734Z,280
2023-02-13T04:34:45.015Z,280
2023-02-13T04:35:17.262Z,280
2023-02-13T04:35:49.245Z,280
2023-02-13T04:36:20.923Z,280
2023-02-13T04:36:52.936Z,280
2023-02-13T04:37:24.909Z,280
2023-02-13T04:37:56.900Z,280
2023-02-13T04:38:28.841Z,280
2023-02-13T04:39:00.817Z,280
2023-02-13T04:39:32.966Z,290
2023-02-13T04:40:05.233Z,300
2023-02-13T04:40:36.589Z,299
2023-02-13T04:41:08.785Z,299
2023-02-13T04:41:40.901Z,299
2023-02-13T04:42:12.933Z,313
2023-02-13T04:42:44.576Z,312
2023-02-13T04:43:16.646Z,312
2023-02-13T04:43:32.953Z,312
2023-02-13T04:44:16.776Z,312
2023-02-13T04:44:48.688Z,299
2023-02-13T04:45:21.016Z,292
2023-02-13T04:45:52.659Z,293
2023-02-13T04:46:24.679Z,293
2023-02-13T04:46:56.562Z,290
2023-02-13T04:47:28.604Z,290
2023-02-13T04:48:00.533Z,290
2023-02-13T04:48:32.565Z,290
2023-02-13T04:49:04.812Z,290
2023-02-13T04:49:36.212Z,293
2023-02-13T04:50:08.607Z,290
2023-02-13T04:50:40.595Z,290
2023-02-13T04:51:12.461Z,290
2023-02-13T04:51:44.183Z,290
2023-02-13T04:52:00.805Z,290
2023-02-13T04:52:44.278Z,290
2023-02-13T04:53:00.385Z,290
2023-02-13T04:53:44.348Z,290
2023-02-13T04:54:16.076Z,290
2023-02-13T04:54:48.183Z,290
2023-02-13T04:55:20.600Z,277
2023-02-13T04:55:52.320Z,289
2023-02-13T04:56:24.084Z,288
2023-02-13T04:56:56.012Z,288
2023-02-13T04:57:28.174Z,288
2023-02-13T04:58:00.158Z,288
2023-02-13T04:58:32.072Z,288
2023-02-13T04:58:48.007Z,288
2023-02-13T04:59:20.080Z,288
2023-02-13T05:00:06.145Z,288
2023-02-13T05:00:36.021Z,288
2023-02-13T05:01:07.988Z,288
2023-02-13T05:01:39.823Z,288
2023-02-13T05:02:11.978Z,288
2023-02-13T05:02:43.915Z,289
2023-02-13T05:03:15.742Z,288
2023-02-13T05:03:32.063Z,296
2023-02-13T05:04:15.802Z,296
2023-02-13T05:04:47.946Z,296
2023-02-13T05:05:20.152Z,296
2023-02-13T05:05:51.847Z,296
2023-02-13T05:06:23.640Z,296
2023-02-13T05:06:55.726Z,296
2023-02-13T05:07:27.843Z,296
2023-02-13T05:07:59.692Z,296
2023-02-13T05:08:15.662Z,296
2023-02-13T05:08:47.493Z,296
2023-02-13T05:09:31.970Z,296
2023-02-13T05:10:04.167Z,296
2023-02-13T05:10:35.365Z,296
2023-02-13T05:11:07.386Z,296
2023-02-13T05:11:39.540Z,296
2023-02-13T05:12:11.588Z,296
2023-02-13T05:12:43.385Z,296
2023-02-13T05:12:59.516Z,296
2023-02-13T05:13:43.528Z,296
2023-02-13T05:14:15.402Z,296
2023-02-13T05:14:47.433Z,296
2023-02-13T05:15:19.704Z,296
2023-02-13T05:15:51.554Z,296
2023-02-13T05:16:23.328Z,296
2023-02-13T05:16:55.354Z,296
2023-02-13T05:17:28.344Z,296
2023-02-13T05:17:59.330Z,296
2023-02-13T05:18:31.644Z,296
2023-02-13T05:19:04.094Z,296
2023-02-13T05:19:35.065Z,296
2023-02-13T05:20:07.317Z,296
2023-02-13T05:20:39.179Z,296
2023-02-13T05:21:11.406Z,296
2023-02-13T05:21:43.029Z,296
2023-02-13T05:22:15.131Z,296
2023-02-13T05:22:47.105Z,296
2023-02-13T05:23:19.124Z,296
2023-02-13T05:23:50.893Z,296
2023-02-13T05:24:22.985Z,296
2023-02-13T05:24:54.973Z,296
2023-02-13T05:25:27.420Z,296
2023-02-13T05:25:58.903Z,296
2023-02-13T05:26:14.864Z,296
2023-02-13T05:26:46.855Z,295
2023-02-13T05:27:30.932Z,296
2023-02-13T05:28:03.692Z,296
2023-02-13T05:28:34.728Z,295
2023-02-13T05:29:06.697Z,295
2023-02-13T05:29:38.793Z,296
2023-02-13T05:30:12.197Z,296
2023-02-13T05:30:42.850Z,296
2023-02-13T05:30:59.410Z,296
2023-02-13T05:31:43.015Z,296
2023-02-13T05:32:14.762Z,296
2023-02-13T05:32:46.727Z,296
2023-02-13T05:33:18.605Z,296
2023-02-13T05:33:50.657Z,296
2023-02-13T05:34:22.676Z,296
2023-02-13T05:34:54.590Z,296
2023-02-13T05:35:26.712Z,296
2023-02-13T05:35:58.470Z,296
2023-02-13T05:36:30.654Z,296
2023-02-13T05:37:03.382Z,296
2023-02-13T05:37:34.499Z,296
2023-02-13T05:38:06.401Z,296
2023-02-13T05:38:38.430Z,296
2023-02-13T05:39:10.730Z,296
2023-02-13T05:39:42.361Z,296
2023-02-13T05:40:14.618Z,295
2023-02-13T05:40:46.367Z,295
2023-02-13T05:41:18.406Z,296
2023-02-13T05:41:50.227Z,295
2023-02-13T05:42:22.178Z,296
2023-02-13T05:42:54.264Z,295
2023-02-13T05:43:26.298Z,295
2023-02-13T05:43:58.080Z,295
2023-02-13T05:44:14.411Z,296
2023-02-13T05:44:46.261Z,296
2023-02-13T05:45:30.593Z,296
2023-02-13T05:46:02.973Z,296
2023-02-13T05:46:34.059Z,296
2023-02-13T05:47:06.410Z,296
2023-02-13T05:47:38.067Z,295
2023-02-13T05:48:10.087Z,295
2023-02-13T05:48:42.078Z,296
2023-02-13T05:48:58.147Z,296
2023-02-13T05:49:42.068Z,296
2023-02-13T05:50:14.230Z,295
2023-02-13T05:50:45.893Z,296
2023-02-13T05:51:17.741Z,296
2023-02-13T05:51:49.767Z,296
2023-02-13T05:52:21.805Z,296
2023-02-13T05:52:53.835Z,296
2023-02-13T05:53:25.662Z,296
2023-02-13T05:53:57.809Z,296
2023-02-13T05:54:29.966Z,296
2023-02-13T05:55:03.115Z,296
2023-02-13T05:55:33.644Z,296
2023-02-13T05:56:05.602Z,296
2023-02-13T05:56:37.479Z,296
2023-02-13T05:57:09.740Z,296
2023-02-13T05:57:41.595Z,296
2023-02-13T05:57:57.793Z,296
2023-02-13T05:58:29.598Z,296
2023-02-13T05:58:45.567Z,296
2023-02-13T05:59:17.632Z,296
2023-02-13T05:59:49.376Z,296
2023-02-13T06:00:21.957Z,296
2023-02-13T06:00:53.559Z,296
2023-02-13T06:01:25.362Z,296
2023-02-13T06:01:57.363Z,296
2023-02-13T06:02:13.513Z,296
2023-02-13T06:02:45.520Z,296
2023-02-13T06:03:29.630Z,296
2023-02-13T06:04:03.888Z,296
2023-02-13T06:04:33.295Z,296
2023-02-13T06:05:05.519Z,296
2023-02-13T06:05:37.235Z,296
2023-02-13T06:06:09.398Z,296
2023-02-13T06:06:42.668Z,296
2023-02-13T06:06:57.334Z,296
2023-02-13T06:07:41.137Z,296
2023-02-13T06:08:13.155Z,296
2023-02-13T06:08:45.168Z,296
2023-02-13T06:09:17.009Z,296
2023-02-13T06:09:49.110Z,296
2023-02-13T06:10:21.353Z,296
2023-02-13T06:10:53.178Z,296
2023-02-13T06:11:24.936Z,296
2023-02-13T06:11:56.954Z,296
2023-02-13T06:12:29.031Z,296
2023-02-13T06:13:01.348Z,296
2023-02-13T06:13:32.845Z,295
2023-02-13T06:14:04.958Z,296
2023-02-13T06:14:36.853Z,296
2023-02-13T06:15:10.034Z,296
2023-02-13T06:15:40.926Z,296
2023-02-13T06:16:13.017Z,296
2023-02-13T06:16:44.814Z,296
2023-02-13T06:17:16.793Z,296
2023-02-13T06:17:48.702Z,296
2023-02-13T06:18:20.761Z,296
2023-02-13T06:18:52.614Z,296
2023-02-13T06:19:24.800Z,296
2023-02-13T06:19:56.583Z,296
2023-02-13T06:20:13.134Z,296
2023-02-13T06:20:44.549Z,296
2023-02-13T06:21:28.584Z,296
2023-02-13T06:22:00.948Z,296
2023-02-13T06:22:32.594Z,296
2023-02-13T06:23:04.979Z,296
2023-02-13T06:23:36.530Z,296
2023-02-13T06:24:08.474Z,296
2023-02-13T06:24:40.477Z,296
2023-02-13T06:24:56.600Z,296
2023-02-13T06:25:40.761Z,296
2023-02-13T06:26:12.438Z,296
2023-02-13T06:26:44.207Z,296
2023-02-13T06:27:16.368Z,296
2023-02-13T06:27:48.350Z,296
2023-02-13T06:28:20.725Z,296
2023-02-13T06:28:52.213Z,296
2023-02-13T06:29:24.249Z,296
2023-02-13T06:29:56.296Z,296
2023-02-13T06:30:28.650Z,296
2023-02-13T06:31:00.685Z,296
2023-02-13T06:31:32.355Z,296
2023-02-13T06:32:04.578Z,296
2023-02-13T06:32:36.359Z,296
2023-02-13T06:33:07.977Z,296
2023-02-13T06:33:40.052Z,296
2023-02-13T06:33:56.038Z,296
2023-02-13T06:34:28.296Z,296
2023-02-13T06:34:44.037Z,296
2023-02-13T06:35:16.553Z,296
2023-02-13T06:35:47.941Z,296
2023-02-13T06:36:19.955Z,296
2023-02-13T06:36:52.286Z,296
2023-02-13T06:37:24.254Z,296
2023-02-13T06:37:56.036Z,296
2023-02-13T06:38:28.097Z,296
2023-02-13T06:39:00.452Z,296
2023-02-13T06:39:32.088Z,296
2023-02-13T06:40:04.701Z,296
2023-02-13T06:40:35.914Z,296
2023-02-13T06:41:07.837Z,296
2023-02-13T06:41:40.120Z,296
2023-02-13T06:42:11.913Z,296
2023-02-13T06:42:43.773Z,296
2023-02-13T06:43:15.962Z,296
2023-02-13T06:43:48.049Z,296
2023-02-13T06:44:19.846Z,296
2023-02-13T06:44:51.765Z,300
2023-02-13T06:45:24.267Z,303
2023-02-13T06:45:55.808Z,303
2023-02-13T06:46:27.732Z,303
2023-02-13T06:46:43.849Z,302
2023-02-13T06:47:15.617Z,302
2023-02-13T06:47:59.976Z,302
2023-02-13T06:48:31.722Z,302
2023-02-13T06:49:04.498Z,302
2023-02-13T06:49:35.525Z,302
2023-02-13T06:50:07.817Z,302
2023-02-13T06:50:39.555Z,302
2023-02-13T06:51:11.616Z,302
2023-02-13T06:51:27.689Z,302
2023-02-13T06:52:11.557Z,302
2023-02-13T06:52:43.469Z,302
2023-02-13T06:53:15.334Z,302
2023-02-13T06:53:47.557Z,302
2023-02-13T06:54:19.561Z,302
2023-02-13T06:54:51.656Z,302
2023-02-13T06:55:25.499Z,302
2023-02-13T06:55:55.294Z,302
2023-02-13T06:56:11.478Z,302
2023-02-13T06:56:43.462Z,302
2023-02-13T06:57:27.419Z,302
2023-02-13T06:57:59.141Z,302
2023-02-13T06:58:15.346Z,302
2023-02-13T06:58:47.270Z,302
2023-02-13T06:59:31.433Z,302
2023-02-13T07:00:07.452Z,302
2023-02-13T07:00:37.527Z,302
2023-02-13T07:01:07.114Z,302
2023-02-13T07:01:39.329Z,302
2023-02-13T07:02:11.208Z,302
2023-02-13T07:02:43.193Z,302
2023-02-13T07:03:15.061Z,302
2023-02-13T07:03:46.971Z,302
2023-02-13T07:04:19.130Z,302
2023-02-13T07:04:51.023Z,302
2023-02-13T07:05:25.687Z,302
2023-02-13T07:05:54.980Z,302
2023-02-13T07:06:26.990Z,303
2023-02-13T07:06:58.862Z,303
2023-02-13T07:07:31.085Z,303
2023-02-13T07:08:03.782Z,303
2023-02-13T07:08:34.799Z,302
2023-02-13T07:09:06.773Z,302
2023-02-13T07:09:40.870Z,302
2023-02-13T07:10:11.128Z,302
2023-02-13T07:10:42.946Z,303
2023-02-13T07:11:14.663Z,303
2023-02-13T07:11:46.618Z,304